Time;durP1;ratioP1;P1;durP2;ratioP2;P2;SDS_P1;SDS_P2;PMS_P1;PMS_P2;Temp;Humidity;BMP_temperature;BMP_pressure;BME280_temperature;BME280_humidity;BME280_pressure;Samples;Min_cycle;Max_cycle;Signal;HPM_P1;HPM_P2
2021/10/16 00:01:49;;;;;;;912.10;612.58;;;;;;;;;;5058390;28;21007;-78
2021/10/16 00:04:15;;;;;;;907.78;593.80;;;;;;;;;;5046005;28;20036;-78
2021/10/16 00:06:41;;;;;;;905.67;598.03;;;;;;;;;;5042549;28;20029;-80
2021/10/16 00:09:07;;;;;;;905.13;591.85;;;;;;;;;;5061816;28;20488;-80
2021/10/16 00:11:33;;;;;;;900.40;578.88;;;;;;;;;;5046336;28;20396;-80
2021/10/16 00:13:59;;;;;;;904.33;596.22;;;;;;;;;;5044816;28;20049;-78
2021/10/16 00:16:25;;;;;;;899.95;574.95;;;;;;;;;;5044096;28;20033;-78
2021/10/16 00:18:51;;;;;;;907.83;603.83;;;;;;;;;;5041856;28;20050;-79
2021/10/16 00:21:17;;;;;;;903.53;594.80;;;;;;;;;;5037562;28;20074;-79
2021/10/16 00:23:43;;;;;;;897.40;571.88;;;;;;;;;;5040560;28;20508;-78
2021/10/16 00:26:09;;;;;;;899.05;576.33;;;;;;;;;;5037522;28;20028;-78
2021/10/16 00:28:35;;;;;;;900.85;578.55;;;;;;;;;;5046484;28;20028;-79
2021/10/16 00:31:01;;;;;;;904.58;588.88;;;;;;;;;;5062949;28;20035;-79
2021/10/16 00:33:27;;;;;;;899.72;574.22;;;;;;;;;;5044284;28;20066;-79
2021/10/16 00:35:53;;;;;;;909.67;606.78;;;;;;;;;;5042910;28;20059;-78
2021/10/16 00:38:19;;;;;;;896.53;572.20;;;;;;;;;;5063236;28;20020;-78
2021/10/16 00:40:45;;;;;;;904.65;590.03;;;;;;;;;;5042654;28;20021;-78
2021/10/16 00:43:11;;;;;;;896.97;569.35;;;;;;;;;;5043212;28;20032;-78
2021/10/16 00:45:37;;;;;;;902.90;575.45;;;;;;;;;;5063685;28;20392;-78
2021/10/16 00:48:03;;;;;;;899.08;565.30;;;;;;;;;;5047777;28;20050;-78
2021/10/16 00:50:29;;;;;;;894.70;556.05;;;;;;;;;;5046371;28;20024;-78
2021/10/16 00:52:55;;;;;;;904.33;589.13;;;;;;;;;;5046743;28;20032;-78
2021/10/16 00:55:23;;;;;;;895.30;559.15;;;;;;;;;;5042099;28;20040;-79
2021/10/16 00:57:49;;;;;;;896.53;561.22;;;;;;;;;;5040518;28;20386;-79
2021/10/16 01:00:15;;;;;;;897.10;557.45;;;;;;;;;;5043999;28;20547;-79
2021/10/16 01:02:41;;;;;;;894.83;548.97;;;;;;;;;;5040032;28;20407;-79
2021/10/16 01:05:08;;;;;;;893.17;546.78;;;;;;;;;;5041437;28;20029;-79
2021/10/16 01:07:36;;;;;;;896.72;556.72;;;;;;;;;;5063055;28;20025;-79
2021/10/16 01:10:03;;;;;;;905.45;579.83;;;;;;;;;;5059478;28;20064;-79
2021/10/16 01:12:30;;;;;;;891.33;537.28;;;;;;;;;;5045131;28;20645;-79
2021/10/16 01:15:02;;;;;;;890.17;539.08;;;;;;;;;;5045140;28;20132;-79
2021/10/16 01:17:29;;;;;;;888.92;531.53;;;;;;;;;;5041316;28;20119;-79
2021/10/16 01:19:57;;;;;;;900.08;569.15;;;;;;;;;;5058757;28;20047;-79
2021/10/16 01:22:23;;;;;;;894.22;547.30;;;;;;;;;;5040376;28;20052;-80
2021/10/16 01:24:50;;;;;;;891.30;540.70;;;;;;;;;;5041958;28;20419;-79
2021/10/16 01:27:16;;;;;;;892.85;540.05;;;;;;;;;;5063614;28;20073;-80
2021/10/16 01:29:42;;;;;;;894.40;549.63;;;;;;;;;;5042388;28;20031;-79
2021/10/16 01:32:09;;;;;;;892.83;536.40;;;;;;;;;;5059353;28;20036;-79
2021/10/16 01:34:35;;;;;;;889.33;528.33;;;;;;;;;;5059265;28;20404;-79
2021/10/16 01:37:01;;;;;;;890.78;520.88;;;;;;;;;;5043749;28;20423;-79
2021/10/16 01:39:29;;;;;;;894.95;538.88;;;;;;;;;;5057527;28;20048;-79
2021/10/16 01:41:55;;;;;;;897.60;540.08;;;;;;;;;;5044114;28;20032;-80
2021/10/16 01:44:21;;;;;;;894.42;536.25;;;;;;;;;;5060824;28;20028;-80
2021/10/16 01:46:47;;;;;;;895.13;542.88;;;;;;;;;;5044387;28;20041;-79
2021/10/16 01:49:14;;;;;;;896.05;544.80;;;;;;;;;;5043752;28;20143;-79
2021/10/16 01:51:41;;;;;;;891.33;526.90;;;;;;;;;;5043597;28;20082;-79
2021/10/16 01:54:07;;;;;;;885.28;511.67;;;;;;;;;;5043378;28;20472;-80
2021/10/16 01:56:34;;;;;;;894.45;538.95;;;;;;;;;;5040081;28;20110;-79
2021/10/16 01:59:20;;;;;;;890.90;523.90;;;;;;;;;;5057835;28;20094;-80
2021/10/16 02:01:46;;;;;;;892.80;524.72;;;;;;;;;;5037225;28;20025;-80
2021/10/16 02:04:13;;;;;;;890.35;524.28;;;;;;;;;;5041107;28;20039;-79
2021/10/16 02:06:39;;;;;;;894.50;533.85;;;;;;;;;;5044275;28;20490;-79
2021/10/16 02:09:05;;;;;;;886.17;514.33;;;;;;;;;;5041412;28;20123;-80
2021/10/16 02:11:31;;;;;;;888.67;523.08;;;;;;;;;;5045373;28;20058;-79
2021/10/16 02:13:58;;;;;;;883.03;501.58;;;;;;;;;;5039706;28;20056;-80
2021/10/16 02:16:24;;;;;;;884.03;499.48;;;;;;;;;;5060208;28;20435;-79
2021/10/16 02:18:50;;;;;;;881.50;494.65;;;;;;;;;;5045226;28;20029;-80
2021/10/16 02:21:16;;;;;;;886.90;510.33;;;;;;;;;;5040608;28;20416;-79
2021/10/16 02:23:42;;;;;;;884.95;503.73;;;;;;;;;;5038746;28;20033;-79
2021/10/16 02:26:08;;;;;;;878.25;483.90;;;;;;;;;;5041403;28;20090;-79
2021/10/16 02:28:34;;;;;;;883.55;504.17;;;;;;;;;;5041461;28;20033;-80
2021/10/16 02:31:01;;;;;;;876.97;473.88;;;;;;;;;;5061824;28;20032;-79
2021/10/16 02:33:27;;;;;;;883.90;502.20;;;;;;;;;;5040667;28;20484;-79
2021/10/16 02:35:53;;;;;;;887.50;513.17;;;;;;;;;;5056513;28;20036;-79
2021/10/16 02:38:19;;;;;;;885.85;510.02;;;;;;;;;;5041728;28;20415;-79
2021/10/16 02:40:45;;;;;;;887.15;513.95;;;;;;;;;;5044297;28;20020;-80
2021/10/16 02:43:10;;;;;;;886.38;517.03;;;;;;;;;;5044847;28;20021;-79
2021/10/16 02:45:36;;;;;;;890.60;526.90;;;;;;;;;;5059742;28;20094;-80
2021/10/16 02:48:02;;;;;;;883.55;507.48;;;;;;;;;;5060944;28;20067;-79
2021/10/16 02:50:28;;;;;;;913.97;519.63;;;;;;;;;;5042710;28;20028;-79
2021/10/16 02:52:54;;;;;;;888.20;516.30;;;;;;;;;;5043569;28;20447;-79
2021/10/16 02:55:21;;;;;;;890.92;520.47;;;;;;;;;;5038353;28;20028;-79
2021/10/16 02:57:46;;;;;;;884.10;505.70;;;;;;;;;;5040012;28;20031;-79
2021/10/16 03:00:13;;;;;;;892.17;532.20;;;;;;;;;;5043890;28;20289;-79
2021/10/16 03:02:39;;;;;;;919.22;538.88;;;;;;;;;;5041349;28;20100;-79
2021/10/16 03:05:05;;;;;;;895.28;538.70;;;;;;;;;;5040813;28;20024;-79
2021/10/16 03:07:31;;;;;;;888.75;527.90;;;;;;;;;;5043317;28;20028;-79
2021/10/16 03:09:58;;;;;;;891.47;534.30;;;;;;;;;;5061234;28;20030;-79
2021/10/16 03:12:24;;;;;;;896.10;544.08;;;;;;;;;;5041507;28;20025;-79
2021/10/16 03:14:50;;;;;;;890.80;537.60;;;;;;;;;;5043066;28;20381;-80
2021/10/16 03:17:16;;;;;;;890.20;530.72;;;;;;;;;;5041590;28;20035;-79
2021/10/16 03:19:42;;;;;;;892.25;537.88;;;;;;;;;;5042586;28;20028;-79
2021/10/16 03:22:08;;;;;;;890.20;538.22;;;;;;;;;;5060533;28;20025;-79
2021/10/16 03:24:34;;;;;;;894.05;548.20;;;;;;;;;;5035043;28;20120;-79
2021/10/16 03:27:01;;;;;;;886.40;523.45;;;;;;;;;;5040877;28;20454;-80
2021/10/16 03:29:27;;;;;;;892.38;545.58;;;;;;;;;;5033544;28;20041;-79
2021/10/16 03:31:53;;;;;;;900.28;573.38;;;;;;;;;;5043879;28;20032;-79
2021/10/16 03:34:19;;;;;;;899.03;574.10;;;;;;;;;;5059715;28;20028;-79
2021/10/16 03:36:45;;;;;;;894.97;559.42;;;;;;;;;;5060316;28;20024;-79
2021/10/16 03:39:11;;;;;;;893.47;552.38;;;;;;;;;;5040593;28;20025;-79
2021/10/16 03:41:37;;;;;;;893.78;557.75;;;;;;;;;;5042833;28;20403;-79
2021/10/16 03:44:03;;;;;;;901.17;590.17;;;;;;;;;;5048666;28;20032;-79
2021/10/16 03:46:29;;;;;;;904.70;595.58;;;;;;;;;;5046824;28;20025;-79
2021/10/16 03:48:55;;;;;;;908.08;610.53;;;;;;;;;;5043994;28;20431;-79
2021/10/16 03:51:22;;;;;;;912.40;619.72;;;;;;;;;;5046515;28;20025;-79
2021/10/16 03:53:48;;;;;;;906.58;604.45;;;;;;;;;;5047212;28;20040;-79
2021/10/16 03:56:14;;;;;;;910.88;621.80;;;;;;;;;;5048282;28;20472;-79
2021/10/16 03:58:40;;;;;;;912.95;621.28;;;;;;;;;;5065139;28;20024;-79
2021/10/16 04:01:06;;;;;;;907.33;607.67;;;;;;;;;;5066178;28;20028;-78
2021/10/16 04:03:32;;;;;;;915.72;633.90;;;;;;;;;;5044582;28;20028;-79
2021/10/16 04:05:58;;;;;;;902.83;597.60;;;;;;;;;;5067669;28;20020;-79
2021/10/16 04:08:24;;;;;;;915.10;631.97;;;;;;;;;;5066732;28;20031;-79
2021/10/16 04:10:50;;;;;;;907.90;607.20;;;;;;;;;;5043855;28;20032;-79
2021/10/16 04:13:16;;;;;;;913.15;627.72;;;;;;;;;;5047530;28;20040;-79
2021/10/16 04:15:42;;;;;;;914.28;631.05;;;;;;;;;;5048066;28;20025;-79
2021/10/16 04:18:08;;;;;;;911.83;627.33;;;;;;;;;;5041641;28;20020;-79
2021/10/16 04:20:34;;;;;;;918.13;645.05;;;;;;;;;;5047581;28;20047;-80
2021/10/16 04:23:00;;;;;;;912.72;630.13;;;;;;;;;;5043622;28;20035;-79
2021/10/16 04:25:27;;;;;;;917.33;642.25;;;;;;;;;;5062304;28;20008;-79
2021/10/16 04:27:53;;;;;;;910.85;628.67;;;;;;;;;;5066644;28;20017;-79
2021/10/16 04:30:19;;;;;;;913.03;630.80;;;;;;;;;;5042164;28;20489;-79
2021/10/16 04:32:46;;;;;;;913.95;638.60;;;;;;;;;;5047333;28;20282;-79
2021/10/16 04:35:12;;;;;;;915.65;645.75;;;;;;;;;;5066639;28;20041;-79
2021/10/16 04:37:38;;;;;;;901.53;604.38;;;;;;;;;;5048619;28;20162;-79
2021/10/16 04:40:20;;;;;;;908.08;629.85;;;;;;;;;;5065633;28;20519;-80
2021/10/16 04:42:46;;;;;;;896.33;584.80;;;;;;;;;;5062760;28;20036;-80
2021/10/16 04:45:12;;;;;;;899.05;599.58;;;;;;;;;;5045520;28;20032;-80
2021/10/16 04:47:40;;;;;;;906.83;627.00;;;;;;;;;;5066375;28;20112;-80
2021/10/16 04:50:07;;;;;;;902.50;609.17;;;;;;;;;;5045817;28;20099;-79
2021/10/16 04:52:33;;;;;;;901.83;610.97;;;;;;;;;;5041356;28;20638;-79
2021/10/16 04:54:59;;;;;;;909.58;634.30;;;;;;;;;;5038681;28;20111;-80
2021/10/16 04:57:25;;;;;;;912.40;631.75;;;;;;;;;;5046631;28;20496;-80
2021/10/16 04:59:51;;;;;;;903.70;615.08;;;;;;;;;;5042624;28;20123;-80
2021/10/16 05:02:17;;;;;;;916.72;649.22;;;;;;;;;;5043046;28;20030;-79
2021/10/16 05:04:43;;;;;;;914.20;644.72;;;;;;;;;;5063663;28;20040;-79
2021/10/16 05:07:09;;;;;;;915.47;649.58;;;;;;;;;;5065990;28;20036;-79
2021/10/16 05:09:35;;;;;;;915.50;650.13;;;;;;;;;;5039734;28;20369;-79
2021/10/16 05:12:01;;;;;;;918.50;652.90;;;;;;;;;;5060507;28;20035;-79
2021/10/16 05:14:27;;;;;;;916.80;639.85;;;;;;;;;;5045858;28;20048;-79
2021/10/16 05:16:53;;;;;;;922.03;672.85;;;;;;;;;;5063402;28;20094;-79
2021/10/16 05:19:19;;;;;;;917.75;662.75;;;;;;;;;;5045231;28;20123;-79
2021/10/16 05:21:45;;;;;;;911.20;637.50;;;;;;;;;;5042220;28;20503;-78
2021/10/16 05:24:11;;;;;;;916.42;652.63;;;;;;;;;;5039070;28;20844;-79
2021/10/16 05:26:37;;;;;;;910.60;635.28;;;;;;;;;;5044189;28;20039;-79
2021/10/16 05:29:04;;;;;;;911.15;636.10;;;;;;;;;;5041679;28;20028;-79
2021/10/16 05:31:30;;;;;;;919.22;661.42;;;;;;;;;;5043034;28;20032;-79
2021/10/16 05:33:56;;;;;;;914.58;654.10;;;;;;;;;;5042877;28;20498;-79
2021/10/16 05:36:22;;;;;;;916.03;654.88;;;;;;;;;;5036006;28;20032;-79
2021/10/16 05:38:48;;;;;;;922.30;671.53;;;;;;;;;;5039165;28;20067;-79
2021/10/16 05:41:14;;;;;;;926.30;675.10;;;;;;;;;;5046742;28;20017;-79
2021/10/16 05:43:41;;;;;;;919.65;670.95;;;;;;;;;;5064715;28;20094;-79
2021/10/16 05:46:07;;;;;;;921.50;676.00;;;;;;;;;;5044036;28;20066;-79
2021/10/16 05:48:33;;;;;;;921.38;677.28;;;;;;;;;;5044955;28;20695;-79
2021/10/16 05:50:59;;;;;;;926.72;690.25;;;;;;;;;;5063806;28;20512;-79
2021/10/16 05:53:25;;;;;;;920.92;680.40;;;;;;;;;;5044435;28;20032;-79
2021/10/16 05:55:51;;;;;;;917.70;673.05;;;;;;;;;;5043097;28;20033;-79
2021/10/16 05:58:17;;;;;;;926.78;692.13;;;;;;;;;;5040127;28;20055;-79
2021/10/16 06:00:43;;;;;;;922.53;682.47;;;;;;;;;;5064349;28;20093;-79
2021/10/16 06:03:09;;;;;;;910.88;655.42;;;;;;;;;;5046289;28;20024;-79
2021/10/16 06:05:35;;;;;;;917.08;669.60;;;;;;;;;;5064785;28;20083;-79
2021/10/16 06:08:02;;;;;;;926.53;691.50;;;;;;;;;;5063649;28;20089;-79
2021/10/16 06:10:27;;;;;;;912.38;654.92;;;;;;;;;;5045205;28;20040;-79
2021/10/16 06:12:53;;;;;;;923.47;685.22;;;;;;;;;;5044704;28;20028;-79
2021/10/16 06:15:19;;;;;;;925.88;692.70;;;;;;;;;;5062540;28;20097;-79
2021/10/16 06:17:45;;;;;;;919.30;669.60;;;;;;;;;;5037264;28;20047;-78
2021/10/16 06:20:11;;;;;;;929.00;704.17;;;;;;;;;;5043469;28;20028;-78
2021/10/16 06:22:38;;;;;;;921.20;679.53;;;;;;;;;;5041675;28;20028;-78
2021/10/16 06:25:04;;;;;;;921.70;675.40;;;;;;;;;;5060307;28;20035;-79
2021/10/16 06:27:30;;;;;;;906.83;633.83;;;;;;;;;;5040776;28;20126;-78
2021/10/16 06:29:56;;;;;;;914.03;655.75;;;;;;;;;;5038298;28;20572;-78
2021/10/16 06:32:22;;;;;;;911.20;647.45;;;;;;;;;;5063295;28;20032;-79
2021/10/16 06:34:48;;;;;;;917.67;663.78;;;;;;;;;;5043265;28;20055;-78
2021/10/16 06:37:14;;;;;;;920.22;669.28;;;;;;;;;;5039654;28;20025;-78
2021/10/16 06:39:40;;;;;;;912.88;652.13;;;;;;;;;;5063963;28;20082;-78
2021/10/16 06:42:06;;;;;;;917.13;663.30;;;;;;;;;;5060597;28;20108;-78
2021/10/16 06:44:32;;;;;;;919.85;674.97;;;;;;;;;;5064099;28;20363;-78
2021/10/16 06:46:58;;;;;;;926.72;692.03;;;;;;;;;;5062849;28;20387;-78
2021/10/16 06:49:24;;;;;;;921.45;682.53;;;;;;;;;;5035014;28;20029;-78
2021/10/16 06:51:50;;;;;;;914.38;660.35;;;;;;;;;;5039042;28;20036;-77
2021/10/16 06:54:17;;;;;;;919.75;673.95;;;;;;;;;;5043966;28;20107;-77
2021/10/16 06:56:43;;;;;;;919.42;678.28;;;;;;;;;;5044493;28;20028;-76
2021/10/16 06:59:09;;;;;;;917.08;663.00;;;;;;;;;;5044863;28;20438;-76
2021/10/16 07:01:35;;;;;;;922.45;682.90;;;;;;;;;;5061854;28;20475;-77
2021/10/16 07:04:01;;;;;;;917.70;675.35;;;;;;;;;;5065026;28;20335;-76
2021/10/16 07:06:27;;;;;;;915.03;662.28;;;;;;;;;;5045085;28;20024;-77
2021/10/16 07:08:53;;;;;;;908.60;646.83;;;;;;;;;;5063718;28;20683;-77
2021/10/16 07:11:19;;;;;;;912.90;664.50;;;;;;;;;;5039530;28;20211;-77
2021/10/16 07:13:45;;;;;;;916.53;672.30;;;;;;;;;;5043209;28;20079;-78
2021/10/16 07:16:11;;;;;;;909.15;646.67;;;;;;;;;;5042963;28;20024;-76
2021/10/16 07:18:38;;;;;;;903.53;623.58;;;;;;;;;;5067899;28;20026;-78
2021/10/16 07:21:04;;;;;;;890.30;577.20;;;;;;;;;;5049617;28;20356;-75
2021/10/16 07:23:30;;;;;;;898.50;607.25;;;;;;;;;;5059583;28;20033;-76
2021/10/16 07:25:58;;;;;;;911.03;631.28;;;;;;;;;;5061497;28;20032;-77
2021/10/16 07:28:25;;;;;;;893.65;600.30;;;;;;;;;;5052543;28;20029;-78
2021/10/16 07:30:52;;;;;;;898.10;605.25;;;;;;;;;;5047000;28;20067;-76
2021/10/16 07:33:18;;;;;;;894.13;595.67;;;;;;;;;;5069184;28;20027;-75
2021/10/16 07:35:45;;;;;;;889.15;575.60;;;;;;;;;;5052116;28;20526;-77
2021/10/16 07:38:11;;;;;;;903.10;620.88;;;;;;;;;;5050023;28;20115;-76
2021/10/16 07:40:38;;;;;;;898.03;589.80;;;;;;;;;;5068985;28;20098;-76
2021/10/16 07:43:04;;;;;;;898.25;603.20;;;;;;;;;;5069820;28;20040;-78
2021/10/16 07:45:30;;;;;;;912.40;655.03;;;;;;;;;;5068915;28;20420;-77
2021/10/16 07:47:56;;;;;;;918.58;673.38;;;;;;;;;;5070027;28;20025;-78
2021/10/16 07:50:22;;;;;;;898.60;614.05;;;;;;;;;;5050528;28;20021;-77
2021/10/16 07:52:48;;;;;;;892.25;595.90;;;;;;;;;;5069995;28;20054;-76
2021/10/16 07:55:14;;;;;;;897.00;610.45;;;;;;;;;;5066766;28;20032;-76
2021/10/16 07:57:40;;;;;;;904.92;640.25;;;;;;;;;;5051716;28;20029;-76
2021/10/16 08:00:07;;;;;;;913.03;664.92;;;;;;;;;;5067623;28;20120;-76
2021/10/16 08:02:33;;;;;;;908.20;647.63;;;;;;;;;;5045823;28;21354;-78
2021/10/16 08:05:01;;;;;;;899.40;626.50;;;;;;;;;;5068760;28;20480;-78
2021/10/16 08:07:27;;;;;;;913.80;665.63;;;;;;;;;;5046446;28;20024;-79
2021/10/16 08:09:53;;;;;;;900.50;630.63;;;;;;;;;;5048063;28;20257;-78
2021/10/16 08:12:20;;;;;;;914.97;673.40;;;;;;;;;;5052226;28;20127;-77
2021/10/16 08:14:47;;;;;;;911.67;665.38;;;;;;;;;;5066535;28;20625;-76
2021/10/16 08:17:14;;;;;;;917.38;682.08;;;;;;;;;;5042355;28;20090;-76
2021/10/16 08:19:40;;;;;;;924.45;709.92;;;;;;;;;;5049641;28;20409;-76
2021/10/16 08:22:08;;;;;;;908.65;657.75;;;;;;;;;;5069423;28;20039;-76
2021/10/16 08:24:34;;;;;;;913.08;670.67;;;;;;;;;;5044624;28;20112;-77
2021/10/16 08:27:00;;;;;;;912.35;670.25;;;;;;;;;;5068693;28;20029;-76
2021/10/16 08:29:26;;;;;;;923.13;704.88;;;;;;;;;;5069707;28;20187;-76
2021/10/16 08:31:52;;;;;;;921.70;704.78;;;;;;;;;;5066864;28;20060;-76
2021/10/16 08:34:18;;;;;;;916.05;688.80;;;;;;;;;;5062876;28;20492;-77
2021/10/16 08:36:44;;;;;;;925.38;716.20;;;;;;;;;;5036097;28;20033;-76
2021/10/16 08:39:10;;;;;;;925.47;715.72;;;;;;;;;;5036436;28;20256;-77
2021/10/16 08:41:36;;;;;;;925.28;714.47;;;;;;;;;;5051062;28;20025;-77
2021/10/16 08:44:02;;;;;;;917.35;692.95;;;;;;;;;;5064520;28;20017;-76
2021/10/16 08:46:30;;;;;;;925.95;716.05;;;;;;;;;;5068782;28;20033;-77
2021/10/16 08:49:01;;;;;;;927.65;728.88;;;;;;;;;;5050592;28;20431;-76
2021/10/16 08:51:27;;;;;;;939.63;758.13;;;;;;;;;;5036579;28;20120;-77
2021/10/16 08:53:53;;;;;;;936.95;738.92;;;;;;;;;;5034285;28;20029;-77
2021/10/16 08:56:23;;;;;;;932.60;743.03;;;;;;;;;;5043340;28;20074;-77
2021/10/16 08:58:49;;;;;;;935.70;752.85;;;;;;;;;;5067344;28;20103;-77
2021/10/16 09:01:15;;;;;;;941.95;765.50;;;;;;;;;;5043558;28;20028;-78
2021/10/16 09:03:51;;;;;;;924.25;722.33;;;;;;;;;;5046778;28;20021;-77
2021/10/16 09:06:20;;;;;;;930.92;740.85;;;;;;;;;;5062287;28;20029;-78
2021/10/16 09:08:51;;;;;;;934.15;747.63;;;;;;;;;;5050215;28;20198;-79
2021/10/16 09:11:27;;;;;;;918.78;699.20;;;;;;;;;;5068770;28;20028;-78
2021/10/16 09:14:01;;;;;;;939.05;760.30;;;;;;;;;;5049749;28;20052;-77
2021/10/16 09:16:36;;;;;;;939.42;759.08;;;;;;;;;;5046079;28;20384;-78
2021/10/16 09:19:02;;;;;;;938.72;757.45;;;;;;;;;;5056016;28;20032;-78
2021/10/16 09:21:29;;;;;;;942.92;769.53;;;;;;;;;;5059293;28;20024;-78
2021/10/16 09:24:09;;;;;;;935.13;752.85;;;;;;;;;;5048344;28;20111;-79
2021/10/16 09:26:35;;;;;;;909.05;674.33;;;;;;;;;;5047376;28;20109;-78
2021/10/16 09:29:02;;;;;;;919.05;704.72;;;;;;;;;;5048508;28;20085;-78
2021/10/16 09:31:33;;;;;;;917.33;705.47;;;;;;;;;;5045817;28;20412;-78
2021/10/16 09:34:01;;;;;;;916.50;701.38;;;;;;;;;;5050599;28;20473;-79
2021/10/16 09:36:30;;;;;;;920.60;715.88;;;;;;;;;;5049349;28;20056;-79
2021/10/16 09:38:57;;;;;;;920.83;721.00;;;;;;;;;;5065942;28;20029;-79
2021/10/16 09:41:23;;;;;;;932.55;752.05;;;;;;;;;;5047812;28;20472;-79
2021/10/16 09:43:49;;;;;;;941.63;778.42;;;;;;;;;;5055092;28;20043;-79
2021/10/16 09:46:16;;;;;;;945.25;785.53;;;;;;;;;;5039354;28;20028;-79
2021/10/16 09:48:45;;;;;;;947.67;801.30;;;;;;;;;;5048629;28;20032;-79
2021/10/16 09:51:11;;;;;;;938.92;779.90;;;;;;;;;;5034698;28;20272;-79
2021/10/16 09:53:37;;;;;;;940.67;779.10;;;;;;;;;;5049806;28;20107;-79
2021/10/16 09:56:04;;;;;;;942.60;777.50;;;;;;;;;;5047347;28;20024;-79
2021/10/16 09:58:33;;;;;;;937.20;776.13;;;;;;;;;;5065444;28;20111;-79
2021/10/16 10:00:59;;;;;;;945.38;797.08;;;;;;;;;;5049497;28;20024;-79
2021/10/16 10:03:25;;;;;;;949.28;804.55;;;;;;;;;;5061951;28;20025;-79
2021/10/16 10:05:52;;;;;;;940.28;788.30;;;;;;;;;;5053430;28;20377;-79
2021/10/16 10:08:21;;;;;;;934.97;775.53;;;;;;;;;;5060478;28;20511;-79
2021/10/16 10:10:48;;;;;;;937.47;787.45;;;;;;;;;;5040121;28;20045;-78
2021/10/16 10:13:17;;;;;;;947.15;807.53;;;;;;;;;;5043603;28;20033;-79
2021/10/16 10:15:44;;;;;;;956.85;824.13;;;;;;;;;;5054019;28;20033;-78
2021/10/16 10:20:57;;;;;;;948.85;807.22;;;;;;;;;;5056615;28;20489;-79
2021/10/16 10:23:24;;;;;;;946.05;807.00;;;;;;;;;;5057377;28;20032;-79
2021/10/16 10:26:10;;;;;;;945.20;802.63;;;;;;;;;;5036145;28;20512;-80
2021/10/16 10:29:03;;;;;;;944.53;800.95;;;;;;;;;;5034582;28;20676;-79
2021/10/16 10:31:44;;;;;;;950.45;810.60;;;;;;;;;;5054885;28;20431;-78
2021/10/16 10:34:14;;;;;;;950.78;814.30;;;;;;;;;;5043818;28;20025;-78
2021/10/16 10:36:47;;;;;;;938.33;792.22;;;;;;;;;;5047167;28;20029;-79
2021/10/16 10:39:28;;;;;;;948.85;808.80;;;;;;;;;;5055471;28;20021;-78
2021/10/16 10:41:54;;;;;;;944.05;799.53;;;;;;;;;;5067345;28;20032;-79
2021/10/16 10:44:39;;;;;;;950.00;812.17;;;;;;;;;;5035849;28;20021;-79
2021/10/16 10:47:23;;;;;;;939.95;792.47;;;;;;;;;;5062487;28;20044;-79
2021/10/16 10:49:53;;;;;;;937.00;784.15;;;;;;;;;;5031503;28;20480;-79
2021/10/16 10:52:22;;;;;;;953.50;827.30;;;;;;;;;;5048212;28;20035;-79
2021/10/16 10:55:06;;;;;;;954.25;823.30;;;;;;;;;;5042819;28;20110;-79
2021/10/16 10:57:45;;;;;;;950.65;813.80;;;;;;;;;;5058447;28;20029;-79
2021/10/16 11:00:15;;;;;;;945.22;805.35;;;;;;;;;;5046519;28;20017;-79
2021/10/16 11:02:41;;;;;;;938.97;791.00;;;;;;;;;;5053181;28;20016;-79
2021/10/16 11:05:45;;;;;;;954.50;829.50;;;;;;;;;;5062610;28;20492;-79
2021/10/16 11:08:14;;;;;;;942.42;792.53;;;;;;;;;;5025614;28;20052;-77
2021/10/16 11:10:41;;;;;;;927.80;765.45;;;;;;;;;;5032736;28;20473;-79
2021/10/16 11:13:25;;;;;;;952.03;826.10;;;;;;;;;;5047096;28;20090;-79
2021/10/16 11:16:01;;;;;;;953.65;828.58;;;;;;;;;;5038506;28;20032;-79
2021/10/16 11:18:28;;;;;;;942.95;805.35;;;;;;;;;;5065447;28;20073;-79
2021/10/16 11:20:54;;;;;;;948.53;819.00;;;;;;;;;;5038707;28;20051;-79
2021/10/16 11:23:22;;;;;;;951.33;827.90;;;;;;;;;;5043691;28;20024;-78
2021/10/16 11:26:07;;;;;;;943.28;811.38;;;;;;;;;;5043937;28;20036;-80
2021/10/16 11:28:35;;;;;;;948.70;824.83;;;;;;;;;;5055665;28;20431;-80
2021/10/16 11:31:01;;;;;;;942.97;806.35;;;;;;;;;;5036654;28;20036;-80
2021/10/16 11:33:29;;;;;;;947.60;823.15;;;;;;;;;;5029212;28;20489;-79
2021/10/16 11:35:59;;;;;;;940.55;803.13;;;;;;;;;;5052072;28;20468;-78
2021/10/16 11:38:30;;;;;;;931.42;778.85;;;;;;;;;;5048804;28;20038;-79
2021/10/16 11:40:57;;;;;;;952.72;835.70;;;;;;;;;;5065407;28;20115;-79
2021/10/16 11:43:24;;;;;;;953.13;837.60;;;;;;;;;;5042688;28;20025;-79
2021/10/16 11:45:52;;;;;;;953.30;835.88;;;;;;;;;;5032172;28;20032;-79
2021/10/16 11:48:19;;;;;;;949.45;832.40;;;;;;;;;;5047872;28;20032;-80
2021/10/16 11:50:46;;;;;;;961.83;849.90;;;;;;;;;;5039617;28;20094;-80
2021/10/16 11:53:12;;;;;;;955.80;847.30;;;;;;;;;;5046394;28;20049;-78
2021/10/16 11:55:40;;;;;;;930.40;791.30;;;;;;;;;;5026725;28;20091;-79
2021/10/16 11:58:13;;;;;;;943.30;819.33;;;;;;;;;;5056282;28;20048;-78
2021/10/16 12:00:40;;;;;;;936.97;773.05;;;;;;;;;;5033159;28;20041;-79
2021/10/16 12:03:09;;;;;;;928.45;781.72;;;;;;;;;;5050086;28;20052;-80
2021/10/16 12:05:36;;;;;;;936.33;795.17;;;;;;;;;;5053207;28;20368;-79
2021/10/16 12:08:12;;;;;;;928.28;777.33;;;;;;;;;;5041193;28;20477;-78
2021/10/16 12:10:38;;;;;;;937.67;803.20;;;;;;;;;;5057782;28;20017;-79
2021/10/16 12:13:08;;;;;;;945.00;769.45;;;;;;;;;;5054086;28;20029;-82
2021/10/16 12:15:45;;;;;;;927.47;762.90;;;;;;;;;;5070572;28;20534;-79
2021/10/16 12:18:25;;;;;;;929.22;777.55;;;;;;;;;;5046154;28;20048;-79
2021/10/16 12:20:51;;;;;;;930.55;784.20;;;;;;;;;;5046780;28;20032;-78
2021/10/16 12:23:17;;;;;;;931.15;788.97;;;;;;;;;;5066715;28;20021;-80
2021/10/16 12:25:44;;;;;;;939.13;810.72;;;;;;;;;;5031640;28;20027;-81
2021/10/16 12:28:10;;;;;;;919.78;753.42;;;;;;;;;;5062997;28;20516;-79
2021/10/16 12:30:37;;;;;;;946.13;818.88;;;;;;;;;;5037847;28;20107;-80
2021/10/16 12:33:03;;;;;;;943.92;819.95;;;;;;;;;;5068192;28;20361;-82
2021/10/16 12:35:30;;;;;;;944.95;825.05;;;;;;;;;;5037545;28;20029;-79
2021/10/16 12:37:59;;;;;;;943.72;821.35;;;;;;;;;;5051015;28;20111;-78
2021/10/16 12:40:39;;;;;;;926.30;780.05;;;;;;;;;;5052032;28;20024;-79
2021/10/16 12:43:05;;;;;;;939.53;807.33;;;;;;;;;;5050444;28;20025;-78
2021/10/16 12:45:36;;;;;;;923.55;769.65;;;;;;;;;;5043632;28;20111;-78
2021/10/16 12:48:01;;;;;;;;;;;;;;;;;;5048664;28;20033;-77
2021/10/16 12:50:28;;;;;;;918.65;734.05;;;;;;;;;;5031063;28;19912;-78
2021/10/16 12:53:00;;;;;;;935.67;798.70;;;;;;;;;;5037654;28;20024;-80
2021/10/16 12:55:26;;;;;;;942.58;815.80;;;;;;;;;;5049385;28;20028;-78
2021/10/16 12:57:58;;;;;;;938.25;805.83;;;;;;;;;;5068535;28;20029;-77
2021/10/16 13:00:25;;;;;;;929.45;789.55;;;;;;;;;;5049213;28;20033;-76
2021/10/16 13:02:51;;;;;;;927.78;783.38;;;;;;;;;;5063531;28;20044;-79
2021/10/16 13:05:18;;;;;;;950.22;842.63;;;;;;;;;;5066700;28;20060;-79
2021/10/16 13:07:44;;;;;;;957.15;851.75;;;;;;;;;;5064411;28;20025;-77
2021/10/16 13:10:11;;;;;;;953.90;848.67;;;;;;;;;;5061691;28;20043;-77
2021/10/16 13:12:37;;;;;;;942.20;834.22;;;;;;;;;;5047263;28;20120;-77
2021/10/16 13:15:04;;;;;;;993.50;886.17;;;;;;;;;;5037848;28;20057;-77
2021/10/16 13:17:31;;;;;;;973.50;867.05;;;;;;;;;;5044010;28;20033;-78
2021/10/16 13:19:57;;;;;;;1004.25;896.60;;;;;;;;;;5047874;28;20288;-79
2021/10/16 13:22:24;;;;;;;955.80;850.25;;;;;;;;;;5043918;28;20032;-76
2021/10/16 13:24:52;;;;;;;974.28;868.22;;;;;;;;;;5037318;28;20037;-81
2021/10/16 13:27:18;;;;;;;956.72;851.47;;;;;;;;;;5031788;28;20529;-77
2021/10/16 13:29:44;;;;;;;987.65;880.85;;;;;;;;;;5042269;28;20064;-77
2021/10/16 13:32:13;;;;;;;983.50;876.13;;;;;;;;;;5041030;28;20029;-77
2021/10/16 13:34:39;;;;;;;954.40;849.13;;;;;;;;;;5027438;28;20033;-78
2021/10/16 13:37:05;;;;;;;966.92;860.90;;;;;;;;;;5035743;28;20284;-79
2021/10/16 13:39:31;;;;;;;957.78;852.05;;;;;;;;;;5041475;28;20021;-80
2021/10/16 13:41:58;;;;;;;978.15;871.33;;;;;;;;;;5047356;28;20029;-78
2021/10/16 13:44:24;;;;;;;951.78;844.78;;;;;;;;;;5047629;28;20029;-76
2021/10/16 13:46:50;;;;;;;993.92;886.53;;;;;;;;;;5046127;28;20029;-79
2021/10/16 13:49:16;;;;;;;978.40;871.50;;;;;;;;;;5045959;28;20090;-78
2021/10/16 13:51:42;;;;;;;970.65;864.15;;;;;;;;;;5046979;28;20119;-78
2021/10/16 13:54:10;;;;;;;986.15;878.88;;;;;;;;;;5043091;28;20595;-78
2021/10/16 13:56:37;;;;;;;1002.53;894.42;;;;;;;;;;5043733;28;20124;-78
2021/10/16 13:59:03;;;;;;;991.80;884.40;;;;;;;;;;5047764;28;20029;-79